Terminal Aerodrome Forecast
Issued by NWS

Home | Current Version | Previous Version | Text Only | Print | Product List | Glossary On
Versions: 1 2 3 4 5 6 7 8 9 10 11 12 13
000
FTUS46 KLOX 041700
TAFPMD
TAF
KPMD 041727Z 0418/0518 25012KT P6SM SKC
     FM042000 24018G28KT P6SM SKC
     FM042200 24022G32KT P6SM SKC
     FM050200 24016KT P6SM SKC
     FM050700 23012KT P6SM SKC=

USA.gov is the U.S. government's official web portal to all federal, state and local government web resources and services.